sensor_id;sensor_type;location;lat;lon;timestamp;temperature;humidity
53045;DHT22;38930;52.766;6.884;2023-08-06T00:01:31;14.60;99.90
53045;DHT22;38930;52.766;6.884;2023-08-06T00:03:56;14.60;99.90
53045;DHT22;38930;52.766;6.884;2023-08-06T00:06:22;14.60;99.90
53045;DHT22;38930;52.766;6.884;2023-08-06T00:08:48;14.60;99.90
53045;DHT22;38930;52.766;6.884;2023-08-06T00:11:13;14.60;99.90
53045;DHT22;38930;52.766;6.884;2023-08-06T00:13:39;14.60;99.90
53045;DHT22;38930;52.766;6.884;2023-08-06T00:16:12;14.50;99.90
53045;DHT22;38930;52.766;6.884;2023-08-06T00:18:38;14.50;99.90
53045;DHT22;38930;52.766;6.884;2023-08-06T00:21:04;14.50;99.90
53045;DHT22;38930;52.766;6.884;2023-08-06T00:23:30;14.50;99.90
53045;DHT22;38930;52.766;6.884;2023-08-06T00:25:55;14.50;99.90
53045;DHT22;38930;52.766;6.884;2023-08-06T00:28:21;14.50;99.90
53045;DHT22;38930;52.766;6.884;2023-08-06T00:30:53;14.50;99.90
53045;DHT22;38930;52.766;6.884;2023-08-06T00:33:18;14.50;99.90
53045;DHT22;38930;52.766;6.884;2023-08-06T00:35:44;14.50;99.90
53045;DHT22;38930;52.766;6.884;2023-08-06T00:38:09;14.50;99.90
53045;DHT22;38930;52.766;6.884;2023-08-06T00:40:35;14.40;99.90
53045;DHT22;38930;52.766;6.884;2023-08-06T00:43:01;14.40;99.90
53045;DHT22;38930;52.766;6.884;2023-08-06T00:45:27;14.40;99.90
53045;DHT22;38930;52.766;6.884;2023-08-06T00:47:55;14.40;99.90
53045;DHT22;38930;52.766;6.884;2023-08-06T00:50:21;14.40;99.90
53045;DHT22;38930;52.766;6.884;2023-08-06T00:52:49;14.40;99.90
53045;DHT22;38930;52.766;6.884;2023-08-06T00:55:15;14.40;99.90
53045;DHT22;38930;52.766;6.884;2023-08-06T00:57:41;14.40;99.90
53045;DHT22;38930;52.766;6.884;2023-08-06T01:00:07;14.30;99.90
53045;DHT22;38930;52.766;6.884;2023-08-06T01:02:33;14.40;99.90
53045;DHT22;38930;52.766;6.884;2023-08-06T01:04:59;14.30;99.90
53045;DHT22;38930;52.766;6.884;2023-08-06T01:13:00;14.40;99.90
53045;DHT22;38930;52.766;6.884;2023-08-06T01:15:30;14.40;99.90
53045;DHT22;38930;52.766;6.884;2023-08-06T01:17:58;14.30;99.90
53045;DHT22;38930;52.766;6.884;2023-08-06T01:20:28;14.30;99.90
53045;DHT22;38930;52.766;6.884;2023-08-06T01:22:54;14.30;99.90
53045;DHT22;38930;52.766;6.884;2023-08-06T01:25:20;14.30;99.90
53045;DHT22;38930;52.766;6.884;2023-08-06T01:27:49;14.30;99.90
53045;DHT22;38930;52.766;6.884;2023-08-06T01:30:25;14.40;99.90
53045;DHT22;38930;52.766;6.884;2023-08-06T01:32:58;14.30;99.90
53045;DHT22;38930;52.766;6.884;2023-08-06T01:35:25;14.30;99.90
53045;DHT22;38930;52.766;6.884;2023-08-06T01:37:52;14.30;99.90
53045;DHT22;38930;52.766;6.884;2023-08-06T01:40:17;14.30;99.90
53045;DHT22;38930;52.766;6.884;2023-08-06T01:42:43;14.40;99.90
53045;DHT22;38930;52.766;6.884;2023-08-06T01:45:09;14.30;99.90
53045;DHT22;38930;52.766;6.884;2023-08-06T01:47:36;14.40;99.90
53045;DHT22;38930;52.766;6.884;2023-08-06T01:50:02;14.40;99.90
53045;DHT22;38930;52.766;6.884;2023-08-06T01:52:28;14.30;99.90
53045;DHT22;38930;52.766;6.884;2023-08-06T01:54:54;14.30;99.90
53045;DHT22;38930;52.766;6.884;2023-08-06T01:57:20;14.40;99.90
53045;DHT22;38930;52.766;6.884;2023-08-06T01:59:45;14.30;99.90
53045;DHT22;38930;52.766;6.884;2023-08-06T02:02:11;14.30;99.90
53045;DHT22;38930;52.766;6.884;2023-08-06T02:04:37;14.30;99.90
53045;DHT22;38930;52.766;6.884;2023-08-06T02:07:03;14.30;99.90
53045;DHT22;38930;52.766;6.884;2023-08-06T02:09:28;14.30;99.90
53045;DHT22;38930;52.766;6.884;2023-08-06T02:11:54;14.30;99.90
53045;DHT22;38930;52.766;6.884;2023-08-06T02:14:20;14.30;99.90
53045;DHT22;38930;52.766;6.884;2023-08-06T02:16:45;14.20;99.90
53045;DHT22;38930;52.766;6.884;2023-08-06T02:19:11;14.20;99.90
53045;DHT22;38930;52.766;6.884;2023-08-06T02:21:36;14.30;99.90
53045;DHT22;38930;52.766;6.884;2023-08-06T02:24:02;14.30;99.90
53045;DHT22;38930;52.766;6.884;2023-08-06T02:26:28;14.20;99.90
53045;DHT22;38930;52.766;6.884;2023-08-06T02:28:54;14.20;99.90
53045;DHT22;38930;52.766;6.884;2023-08-06T02:31:19;14.30;99.90
53045;DHT22;38930;52.766;6.884;2023-08-06T02:33:45;14.20;99.90
53045;DHT22;38930;52.766;6.884;2023-08-06T02:36:10;14.30;99.90
53045;DHT22;38930;52.766;6.884;2023-08-06T02:38:36;14.20;99.90
53045;DHT22;38930;52.766;6.884;2023-08-06T02:41:02;14.30;99.90
53045;DHT22;38930;52.766;6.884;2023-08-06T02:43:29;14.30;99.90
53045;DHT22;38930;52.766;6.884;2023-08-06T02:45:58;14.20;99.90
53045;DHT22;38930;52.766;6.884;2023-08-06T02:48:24;14.30;99.90
53045;DHT22;38930;52.766;6.884;2023-08-06T02:50:50;14.30;99.90
53045;DHT22;38930;52.766;6.884;2023-08-06T02:53:15;14.30;99.90
53045;DHT22;38930;52.766;6.884;2023-08-06T02:55:46;14.30;99.90
53045;DHT22;38930;52.766;6.884;2023-08-06T02:58:16;14.30;99.90
53045;DHT22;38930;52.766;6.884;2023-08-06T03:00:43;14.30;99.90
53045;DHT22;38930;52.766;6.884;2023-08-06T03:03:09;14.20;99.90
53045;DHT22;38930;52.766;6.884;2023-08-06T03:05:35;14.20;99.90
53045;DHT22;38930;52.766;6.884;2023-08-06T03:08:00;14.20;99.90
53045;DHT22;38930;52.766;6.884;2023-08-06T03:10:26;14.20;99.90
53045;DHT22;38930;52.766;6.884;2023-08-06T03:12:52;14.20;99.90
53045;DHT22;38930;52.766;6.884;2023-08-06T03:15:17;14.20;99.90
53045;DHT22;38930;52.766;6.884;2023-08-06T03:17:43;14.20;99.90
53045;DHT22;38930;52.766;6.884;2023-08-06T03:20:10;14.10;99.90
53045;DHT22;38930;52.766;6.884;2023-08-06T03:22:36;14.10;99.90
53045;DHT22;38930;52.766;6.884;2023-08-06T03:25:01;14.00;99.90
53045;DHT22;38930;52.766;6.884;2023-08-06T03:27:27;14.00;99.90
53045;DHT22;38930;52.766;6.884;2023-08-06T03:29:53;14.00;99.90
53045;DHT22;38930;52.766;6.884;2023-08-06T03:32:18;13.90;99.90
53045;DHT22;38930;52.766;6.884;2023-08-06T03:34:44;13.90;99.90
53045;DHT22;38930;52.766;6.884;2023-08-06T03:37:10;13.90;99.90
53045;DHT22;38930;52.766;6.884;2023-08-06T03:39:35;13.90;99.90
53045;DHT22;38930;52.766;6.884;2023-08-06T03:42:01;13.90;99.90
53045;DHT22;38930;52.766;6.884;2023-08-06T03:44:26;13.90;99.90
53045;DHT22;38930;52.766;6.884;2023-08-06T03:46:53;13.80;99.90
53045;DHT22;38930;52.766;6.884;2023-08-06T03:49:19;13.80;99.90
53045;DHT22;38930;52.766;6.884;2023-08-06T03:51:44;13.90;99.90
53045;DHT22;38930;52.766;6.884;2023-08-06T03:54:10;14.00;99.90
53045;DHT22;38930;52.766;6.884;2023-08-06T03:56:35;14.00;99.90
53045;DHT22;38930;52.766;6.884;2023-08-06T03:59:01;14.00;99.90
53045;DHT22;38930;52.766;6.884;2023-08-06T04:01:27;14.00;99.90
53045;DHT22;38930;52.766;6.884;2023-08-06T04:03:52;14.00;99.90
53045;DHT22;38930;52.766;6.884;2023-08-06T04:06:18;14.00;99.90
53045;DHT22;38930;52.766;6.884;2023-08-06T04:08:43;14.00;99.90
53045;DHT22;38930;52.766;6.884;2023-08-06T04:11:09;14.00;99.90
53045;DHT22;38930;52.766;6.884;2023-08-06T04:13:35;14.00;99.90
53045;DHT22;38930;52.766;6.884;2023-08-06T04:16:01;14.00;99.90
53045;DHT22;38930;52.766;6.884;2023-08-06T04:18:27;14.00;99.90
53045;DHT22;38930;52.766;6.884;2023-08-06T04:20:53;14.00;99.90
53045;DHT22;38930;52.766;6.884;2023-08-06T04:23:20;14.00;99.90
53045;DHT22;38930;52.766;6.884;2023-08-06T04:25:46;14.10;99.90
53045;DHT22;38930;52.766;6.884;2023-08-06T04:28:12;14.10;99.90
53045;DHT22;38930;52.766;6.884;2023-08-06T04:30:37;14.10;99.90
53045;DHT22;38930;52.766;6.884;2023-08-06T04:33:03;14.10;99.90
53045;DHT22;38930;52.766;6.884;2023-08-06T04:35:29;14.10;99.90
53045;DHT22;38930;52.766;6.884;2023-08-06T04:37:55;14.10;99.90
53045;DHT22;38930;52.766;6.884;2023-08-06T04:40:21;14.00;99.90
53045;DHT22;38930;52.766;6.884;2023-08-06T04:42:46;14.00;99.90
53045;DHT22;38930;52.766;6.884;2023-08-06T04:45:12;14.00;99.90
53045;DHT22;38930;52.766;6.884;2023-08-06T04:47:37;14.10;99.90
53045;DHT22;38930;52.766;6.884;2023-08-06T04:50:03;14.10;99.90
53045;DHT22;38930;52.766;6.884;2023-08-06T04:52:29;14.10;99.90
53045;DHT22;38930;52.766;6.884;2023-08-06T04:54:55;14.10;99.90
53045;DHT22;38930;52.766;6.884;2023-08-06T04:57:20;14.20;99.90
53045;DHT22;38930;52.766;6.884;2023-08-06T04:59:46;14.30;99.90
53045;DHT22;38930;52.766;6.884;2023-08-06T05:02:12;14.30;99.90
53045;DHT22;38930;52.766;6.884;2023-08-06T05:04:38;14.30;99.90
53045;DHT22;38930;52.766;6.884;2023-08-06T05:07:05;14.30;99.90
53045;DHT22;38930;52.766;6.884;2023-08-06T05:09:30;14.30;99.90
53045;DHT22;38930;52.766;6.884;2023-08-06T05:11:56;14.40;99.90
53045;DHT22;38930;52.766;6.884;2023-08-06T05:14:22;14.40;99.90
53045;DHT22;38930;52.766;6.884;2023-08-06T05:16:47;14.40;99.90
53045;DHT22;38930;52.766;6.884;2023-08-06T05:19:13;14.40;99.90
53045;DHT22;38930;52.766;6.884;2023-08-06T05:21:38;14.30;99.90
53045;DHT22;38930;52.766;6.884;2023-08-06T05:24:04;14.30;99.90
53045;DHT22;38930;52.766;6.884;2023-08-06T05:26:30;14.30;99.90
53045;DHT22;38930;52.766;6.884;2023-08-06T05:28:55;14.40;99.90
53045;DHT22;38930;52.766;6.884;2023-08-06T05:31:21;14.40;99.90
53045;DHT22;38930;52.766;6.884;2023-08-06T05:33:46;14.40;99.90
53045;DHT22;38930;52.766;6.884;2023-08-06T05:36:12;14.40;99.90
53045;DHT22;38930;52.766;6.884;2023-08-06T05:38:38;14.50;99.90
53045;DHT22;38930;52.766;6.884;2023-08-06T05:41:03;14.50;99.90
53045;DHT22;38930;52.766;6.884;2023-08-06T05:43:29;14.60;99.90
53045;DHT22;38930;52.766;6.884;2023-08-06T05:45:56;14.70;99.90
53045;DHT22;38930;52.766;6.884;2023-08-06T05:48:21;14.80;99.90
53045;DHT22;38930;52.766;6.884;2023-08-06T05:50:48;14.90;99.90
53045;DHT22;38930;52.766;6.884;2023-08-06T05:53:13;15.00;99.90
53045;DHT22;38930;52.766;6.884;2023-08-06T05:55:39;15.10;99.90
53045;DHT22;38930;52.766;6.884;2023-08-06T05:58:05;15.20;99.90
53045;DHT22;38930;52.766;6.884;2023-08-06T06:00:30;15.30;99.90
53045;DHT22;38930;52.766;6.884;2023-08-06T06:02:56;15.30;99.90
53045;DHT22;38930;52.766;6.884;2023-08-06T06:05:22;15.40;99.90
53045;DHT22;38930;52.766;6.884;2023-08-06T06:07:47;15.50;99.90
53045;DHT22;38930;52.766;6.884;2023-08-06T06:10:13;15.50;99.90
53045;DHT22;38930;52.766;6.884;2023-08-06T06:12:40;15.50;99.90
53045;DHT22;38930;52.766;6.884;2023-08-06T06:15:06;15.60;99.90
53045;DHT22;38930;52.766;6.884;2023-08-06T06:17:31;15.60;99.90
53045;DHT22;38930;52.766;6.884;2023-08-06T06:19:57;15.70;99.90
53045;DHT22;38930;52.766;6.884;2023-08-06T06:22:22;15.70;99.90
53045;DHT22;38930;52.766;6.884;2023-08-06T06:24:48;15.70;99.90
53045;DHT22;38930;52.766;6.884;2023-08-06T06:27:14;15.70;99.90
53045;DHT22;38930;52.766;6.884;2023-08-06T06:29:39;15.80;99.90
53045;DHT22;38930;52.766;6.884;2023-08-06T06:32:05;15.80;99.90
53045;DHT22;38930;52.766;6.884;2023-08-06T06:34:31;15.80;99.90
53045;DHT22;38930;52.766;6.884;2023-08-06T06:36:56;16.10;99.90
53045;DHT22;38930;52.766;6.884;2023-08-06T06:39:22;16.20;99.90
53045;DHT22;38930;52.766;6.884;2023-08-06T06:41:47;16.30;99.90
53045;DHT22;38930;52.766;6.884;2023-08-06T06:44:13;16.40;99.90
53045;DHT22;38930;52.766;6.884;2023-08-06T06:46:40;16.50;99.90
53045;DHT22;38930;52.766;6.884;2023-08-06T06:49:06;16.60;99.90
53045;DHT22;38930;52.766;6.884;2023-08-06T06:51:31;16.60;99.90
53045;DHT22;38930;52.766;6.884;2023-08-06T06:53:57;16.60;99.90
53045;DHT22;38930;52.766;6.884;2023-08-06T06:56:23;16.60;99.90
53045;DHT22;38930;52.766;6.884;2023-08-06T06:58:48;16.50;99.90
53045;DHT22;38930;52.766;6.884;2023-08-06T07:01:14;16.50;99.90
53045;DHT22;38930;52.766;6.884;2023-08-06T07:03:40;16.40;99.90
53045;DHT22;38930;52.766;6.884;2023-08-06T07:06:06;16.40;99.90
53045;DHT22;38930;52.766;6.884;2023-08-06T07:08:32;16.40;99.90
53045;DHT22;38930;52.766;6.884;2023-08-06T07:11:02;16.40;99.90
53045;DHT22;38930;52.766;6.884;2023-08-06T07:13:29;16.40;99.90
53045;DHT22;38930;52.766;6.884;2023-08-06T07:15:55;16.30;99.90
53045;DHT22;38930;52.766;6.884;2023-08-06T07:18:28;16.30;99.90
53045;DHT22;38930;52.766;6.884;2023-08-06T07:20:54;16.30;99.90
53045;DHT22;38930;52.766;6.884;2023-08-06T07:23:21;16.30;99.90
53045;DHT22;38930;52.766;6.884;2023-08-06T07:25:47;16.30;99.90
53045;DHT22;38930;52.766;6.884;2023-08-06T07:28:13;16.30;99.90
53045;DHT22;38930;52.766;6.884;2023-08-06T07:30:39;16.40;99.90
53045;DHT22;38930;52.766;6.884;2023-08-06T07:33:05;16.50;99.90
53045;DHT22;38930;52.766;6.884;2023-08-06T07:35:31;16.60;99.90
53045;DHT22;38930;52.766;6.884;2023-08-06T07:37:57;16.80;99.90
53045;DHT22;38930;52.766;6.884;2023-08-06T07:40:23;16.80;99.90
53045;DHT22;38930;52.766;6.884;2023-08-06T07:42:48;16.80;99.90
53045;DHT22;38930;52.766;6.884;2023-08-06T07:45:14;16.80;99.90
53045;DHT22;38930;52.766;6.884;2023-08-06T07:47:40;16.90;99.90
53045;DHT22;38930;52.766;6.884;2023-08-06T07:50:06;16.90;99.90
53045;DHT22;38930;52.766;6.884;2023-08-06T07:52:32;17.00;99.90
53045;DHT22;38930;52.766;6.884;2023-08-06T07:54:57;17.00;99.90
53045;DHT22;38930;52.766;6.884;2023-08-06T07:57:24;17.10;99.90
53045;DHT22;38930;52.766;6.884;2023-08-06T07:59:50;17.20;99.90
53045;DHT22;38930;52.766;6.884;2023-08-06T08:02:15;17.30;99.90
53045;DHT22;38930;52.766;6.884;2023-08-06T08:04:41;17.30;99.90
53045;DHT22;38930;52.766;6.884;2023-08-06T08:07:06;17.40;99.90
53045;DHT22;38930;52.766;6.884;2023-08-06T08:09:34;17.40;99.90
53045;DHT22;38930;52.766;6.884;2023-08-06T08:12:00;17.40;99.90
53045;DHT22;38930;52.766;6.884;2023-08-06T08:14:28;17.30;99.90
53045;DHT22;38930;52.766;6.884;2023-08-06T08:16:54;17.30;99.90
53045;DHT22;38930;52.766;6.884;2023-08-06T08:19:20;17.30;99.90
53045;DHT22;38930;52.766;6.884;2023-08-06T08:21:46;17.40;99.90
53045;DHT22;38930;52.766;6.884;2023-08-06T08:24:12;17.40;99.90
53045;DHT22;38930;52.766;6.884;2023-08-06T08:26:37;17.30;99.90
53045;DHT22;38930;52.766;6.884;2023-08-06T08:29:03;17.30;99.90
53045;DHT22;38930;52.766;6.884;2023-08-06T08:31:29;17.30;99.90
53045;DHT22;38930;52.766;6.884;2023-08-06T08:33:55;17.30;99.90
53045;DHT22;38930;52.766;6.884;2023-08-06T08:36:20;17.40;99.90
53045;DHT22;38930;52.766;6.884;2023-08-06T08:38:46;17.50;99.90
53045;DHT22;38930;52.766;6.884;2023-08-06T08:41:12;17.70;99.90
53045;DHT22;38930;52.766;6.884;2023-08-06T08:43:38;17.90;99.90
53045;DHT22;38930;52.766;6.884;2023-08-06T08:46:05;18.00;99.90
53045;DHT22;38930;52.766;6.884;2023-08-06T08:48:34;18.00;99.90
53045;DHT22;38930;52.766;6.884;2023-08-06T08:51:00;18.10;99.90
53045;DHT22;38930;52.766;6.884;2023-08-06T08:53:26;18.10;99.90
53045;DHT22;38930;52.766;6.884;2023-08-06T08:55:53;18.10;99.90
53045;DHT22;38930;52.766;6.884;2023-08-06T08:58:19;18.20;99.90
53045;DHT22;38930;52.766;6.884;2023-08-06T09:00:48;18.30;99.90
53045;DHT22;38930;52.766;6.884;2023-08-06T09:03:16;18.20;99.90
53045;DHT22;38930;52.766;6.884;2023-08-06T09:05:44;18.30;99.90
53045;DHT22;38930;52.766;6.884;2023-08-06T09:08:14;18.40;99.90
53045;DHT22;38930;52.766;6.884;2023-08-06T09:10:43;18.60;99.90
53045;DHT22;38930;52.766;6.884;2023-08-06T09:13:09;18.70;99.90
53045;DHT22;38930;52.766;6.884;2023-08-06T09:15:34;18.90;99.90
53045;DHT22;38930;52.766;6.884;2023-08-06T09:18:00;18.90;99.90
53045;DHT22;38930;52.766;6.884;2023-08-06T09:20:34;19.00;99.90
53045;DHT22;38930;52.766;6.884;2023-08-06T09:23:10;19.10;99.90
53045;DHT22;38930;52.766;6.884;2023-08-06T09:25:39;19.20;99.90
53045;DHT22;38930;52.766;6.884;2023-08-06T09:28:07;19.30;99.90
53045;DHT22;38930;52.766;6.884;2023-08-06T09:30:37;19.30;99.90
53045;DHT22;38930;52.766;6.884;2023-08-06T09:33:04;19.30;99.90
53045;DHT22;38930;52.766;6.884;2023-08-06T09:35:33;19.30;99.90
53045;DHT22;38930;52.766;6.884;2023-08-06T09:38:09;19.40;99.90
53045;DHT22;38930;52.766;6.884;2023-08-06T09:40:36;19.50;99.90
53045;DHT22;38930;52.766;6.884;2023-08-06T09:43:02;19.70;99.90
53045;DHT22;38930;52.766;6.884;2023-08-06T09:45:30;19.70;99.90
53045;DHT22;38930;52.766;6.884;2023-08-06T09:47:57;19.80;99.90
53045;DHT22;38930;52.766;6.884;2023-08-06T09:50:28;19.90;99.90
53045;DHT22;38930;52.766;6.884;2023-08-06T09:52:56;20.00;99.90
53045;DHT22;38930;52.766;6.884;2023-08-06T09:55:23;20.00;99.90
53045;DHT22;38930;52.766;6.884;2023-08-06T09:57:51;19.90;99.90
53045;DHT22;38930;52.766;6.884;2023-08-06T10:00:17;20.00;99.90
53045;DHT22;38930;52.766;6.884;2023-08-06T10:02:43;20.10;99.90
53045;DHT22;38930;52.766;6.884;2023-08-06T10:05:09;20.20;99.90
53045;DHT22;38930;52.766;6.884;2023-08-06T10:07:35;20.20;99.90
53045;DHT22;38930;52.766;6.884;2023-08-06T10:10:02;20.30;99.90
53045;DHT22;38930;52.766;6.884;2023-08-06T10:12:43;20.40;99.90
53045;DHT22;38930;52.766;6.884;2023-08-06T10:15:14;20.50;99.90
53045;DHT22;38930;52.766;6.884;2023-08-06T10:17:41;20.50;99.90
53045;DHT22;38930;52.766;6.884;2023-08-06T10:20:08;20.50;99.90
53045;DHT22;38930;52.766;6.884;2023-08-06T10:22:34;20.40;99.90
53045;DHT22;38930;52.766;6.884;2023-08-06T10:25:03;20.40;99.90
53045;DHT22;38930;52.766;6.884;2023-08-06T10:27:35;20.40;99.90
53045;DHT22;38930;52.766;6.884;2023-08-06T10:30:20;20.40;99.90
53045;DHT22;38930;52.766;6.884;2023-08-06T10:32:47;20.40;99.90
53045;DHT22;38930;52.766;6.884;2023-08-06T10:35:35;20.40;99.90
53045;DHT22;38930;52.766;6.884;2023-08-06T10:40:32;20.70;99.90
53045;DHT22;38930;52.766;6.884;2023-08-06T10:43:02;20.90;99.90
53045;DHT22;38930;52.766;6.884;2023-08-06T10:45:28;21.20;99.90
53045;DHT22;38930;52.766;6.884;2023-08-06T10:47:56;21.50;99.90
53045;DHT22;38930;52.766;6.884;2023-08-06T10:50:23;21.70;99.90
53045;DHT22;38930;52.766;6.884;2023-08-06T10:52:48;21.80;99.90
53045;DHT22;38930;52.766;6.884;2023-08-06T10:55:22;21.80;99.90
53045;DHT22;38930;52.766;6.884;2023-08-06T10:57:48;21.80;99.90
53045;DHT22;38930;52.766;6.884;2023-08-06T11:00:14;21.80;99.90
53045;DHT22;38930;52.766;6.884;2023-08-06T11:02:41;21.90;99.90
53045;DHT22;38930;52.766;6.884;2023-08-06T11:05:10;21.90;99.90
53045;DHT22;38930;52.766;6.884;2023-08-06T11:07:37;22.00;99.90
53045;DHT22;38930;52.766;6.884;2023-08-06T11:10:05;22.00;99.90
53045;DHT22;38930;52.766;6.884;2023-08-06T11:12:32;22.10;99.90
53045;DHT22;38930;52.766;6.884;2023-08-06T11:14:58;22.20;99.90
53045;DHT22;38930;52.766;6.884;2023-08-06T11:17:24;22.30;99.90
53045;DHT22;38930;52.766;6.884;2023-08-06T11:19:50;22.50;99.90
53045;DHT22;38930;52.766;6.884;2023-08-06T11:22:16;22.50;99.90
53045;DHT22;38930;52.766;6.884;2023-08-06T11:24:42;22.60;99.90
53045;DHT22;38930;52.766;6.884;2023-08-06T11:27:15;22.80;99.90
53045;DHT22;38930;52.766;6.884;2023-08-06T11:29:41;22.80;99.90
53045;DHT22;38930;52.766;6.884;2023-08-06T11:32:08;22.70;99.90
53045;DHT22;38930;52.766;6.884;2023-08-06T11:34:34;22.50;99.90
53045;DHT22;38930;52.766;6.884;2023-08-06T11:37:02;22.30;99.90
53045;DHT22;38930;52.766;6.884;2023-08-06T11:39:27;22.10;99.90
53045;DHT22;38930;52.766;6.884;2023-08-06T11:41:53;22.00;99.90
53045;DHT22;38930;52.766;6.884;2023-08-06T11:44:19;21.90;99.90
53045;DHT22;38930;52.766;6.884;2023-08-06T11:46:52;21.80;99.90
53045;DHT22;38930;52.766;6.884;2023-08-06T11:49:18;21.90;99.90
53045;DHT22;38930;52.766;6.884;2023-08-06T11:51:47;21.90;99.90
53045;DHT22;38930;52.766;6.884;2023-08-06T11:54:13;21.80;99.90
53045;DHT22;38930;52.766;6.884;2023-08-06T11:56:38;21.70;99.90
53045;DHT22;38930;52.766;6.884;2023-08-06T11:59:04;21.50;99.90
53045;DHT22;38930;52.766;6.884;2023-08-06T12:01:31;21.40;99.90
53045;DHT22;38930;52.766;6.884;2023-08-06T12:03:59;21.30;99.90
53045;DHT22;38930;52.766;6.884;2023-08-06T12:06:28;21.30;99.90
53045;DHT22;38930;52.766;6.884;2023-08-06T12:08:54;21.20;99.90
53045;DHT22;38930;52.766;6.884;2023-08-06T12:11:21;21.20;99.90
53045;DHT22;38930;52.766;6.884;2023-08-06T12:13:51;21.10;99.90
53045;DHT22;38930;52.766;6.884;2023-08-06T12:16:17;21.10;99.90
53045;DHT22;38930;52.766;6.884;2023-08-06T12:18:44;21.00;99.90
53045;DHT22;38930;52.766;6.884;2023-08-06T12:21:10;21.00;99.90
53045;DHT22;38930;52.766;6.884;2023-08-06T12:23:36;21.00;99.90
53045;DHT22;38930;52.766;6.884;2023-08-06T12:26:01;21.00;99.90
53045;DHT22;38930;52.766;6.884;2023-08-06T12:28:27;21.00;99.90
53045;DHT22;38930;52.766;6.884;2023-08-06T12:30:52;20.90;99.90
53045;DHT22;38930;52.766;6.884;2023-08-06T12:33:20;20.90;99.90
53045;DHT22;38930;52.766;6.884;2023-08-06T12:35:46;21.00;99.90
53045;DHT22;38930;52.766;6.884;2023-08-06T12:38:11;21.00;99.90
53045;DHT22;38930;52.766;6.884;2023-08-06T12:40:39;21.10;99.90
53045;DHT22;38930;52.766;6.884;2023-08-06T12:43:04;21.10;99.90
53045;DHT22;38930;52.766;6.884;2023-08-06T12:45:30;21.20;99.90
53045;DHT22;38930;52.766;6.884;2023-08-06T12:47:56;21.20;99.90
53045;DHT22;38930;52.766;6.884;2023-08-06T12:50:21;21.20;99.90
53045;DHT22;38930;52.766;6.884;2023-08-06T12:52:47;21.30;99.90
53045;DHT22;38930;52.766;6.884;2023-08-06T12:55:12;21.30;99.90
53045;DHT22;38930;52.766;6.884;2023-08-06T12:57:38;21.30;99.90
53045;DHT22;38930;52.766;6.884;2023-08-06T13:00:04;21.40;99.90
53045;DHT22;38930;52.766;6.884;2023-08-06T13:02:30;21.40;99.90
53045;DHT22;38930;52.766;6.884;2023-08-06T13:04:56;21.40;99.90
53045;DHT22;38930;52.766;6.884;2023-08-06T13:07:22;21.50;99.90
53045;DHT22;38930;52.766;6.884;2023-08-06T13:09:47;21.50;99.90
53045;DHT22;38930;52.766;6.884;2023-08-06T13:12:13;21.50;99.90
53045;DHT22;38930;52.766;6.884;2023-08-06T13:14:39;21.60;99.90
53045;DHT22;38930;52.766;6.884;2023-08-06T13:17:04;21.60;99.90
53045;DHT22;38930;52.766;6.884;2023-08-06T13:19:32;21.70;99.90
53045;DHT22;38930;52.766;6.884;2023-08-06T13:22:00;21.70;99.90
53045;DHT22;38930;52.766;6.884;2023-08-06T13:24:27;21.70;99.90
53045;DHT22;38930;52.766;6.884;2023-08-06T13:26:53;21.60;99.90
53045;DHT22;38930;52.766;6.884;2023-08-06T13:29:18;21.50;99.90
53045;DHT22;38930;52.766;6.884;2023-08-06T13:31:44;21.40;99.90
53045;DHT22;38930;52.766;6.884;2023-08-06T13:34:10;21.30;99.90
53045;DHT22;38930;52.766;6.884;2023-08-06T13:36:35;21.20;99.90
53045;DHT22;38930;52.766;6.884;2023-08-06T13:39:01;21.10;99.90
53045;DHT22;38930;52.766;6.884;2023-08-06T13:41:28;21.00;99.90
53045;DHT22;38930;52.766;6.884;2023-08-06T13:43:54;20.90;99.90
53045;DHT22;38930;52.766;6.884;2023-08-06T13:46:20;21.00;99.90
53045;DHT22;38930;52.766;6.884;2023-08-06T13:48:46;20.90;99.90
53045;DHT22;38930;52.766;6.884;2023-08-06T13:51:13;20.90;99.90
53045;DHT22;38930;52.766;6.884;2023-08-06T13:53:39;20.80;99.90
53045;DHT22;38930;52.766;6.884;2023-08-06T13:56:05;20.80;99.90
53045;DHT22;38930;52.766;6.884;2023-08-06T13:58:32;20.80;99.90
53045;DHT22;38930;52.766;6.884;2023-08-06T14:00:57;20.80;99.90
53045;DHT22;38930;52.766;6.884;2023-08-06T14:03:23;20.70;99.90
53045;DHT22;38930;52.766;6.884;2023-08-06T14:05:49;20.70;99.90
53045;DHT22;38930;52.766;6.884;2023-08-06T14:08:15;20.60;99.90
53045;DHT22;38930;52.766;6.884;2023-08-06T14:10:44;20.50;99.90
53045;DHT22;38930;52.766;6.884;2023-08-06T14:13:10;20.40;99.90
53045;DHT22;38930;52.766;6.884;2023-08-06T14:15:35;20.40;99.90
53045;DHT22;38930;52.766;6.884;2023-08-06T14:18:02;20.40;99.90
53045;DHT22;38930;52.766;6.884;2023-08-06T14:20:28;20.40;99.90
53045;DHT22;38930;52.766;6.884;2023-08-06T14:22:54;20.30;99.90
53045;DHT22;38930;52.766;6.884;2023-08-06T14:25:19;20.30;99.90
53045;DHT22;38930;52.766;6.884;2023-08-06T14:27:45;20.30;99.90
53045;DHT22;38930;52.766;6.884;2023-08-06T14:30:11;20.20;99.90
53045;DHT22;38930;52.766;6.884;2023-08-06T14:32:37;20.20;99.90
53045;DHT22;38930;52.766;6.884;2023-08-06T14:35:03;20.10;99.90
53045;DHT22;38930;52.766;6.884;2023-08-06T14:37:28;20.10;99.90
53045;DHT22;38930;52.766;6.884;2023-08-06T14:39:54;20.10;99.90
53045;DHT22;38930;52.766;6.884;2023-08-06T14:42:20;20.00;99.90
53045;DHT22;38930;52.766;6.884;2023-08-06T14:44:46;20.00;99.90
53045;DHT22;38930;52.766;6.884;2023-08-06T14:47:11;19.90;99.90
53045;DHT22;38930;52.766;6.884;2023-08-06T14:49:38;19.90;99.90
53045;DHT22;38930;52.766;6.884;2023-08-06T14:52:04;19.90;99.90
53045;DHT22;38930;52.766;6.884;2023-08-06T14:54:29;19.80;99.90
53045;DHT22;38930;52.766;6.884;2023-08-06T14:56:56;19.80;99.90
53045;DHT22;38930;52.766;6.884;2023-08-06T14:59:22;19.80;99.90
53045;DHT22;38930;52.766;6.884;2023-08-06T15:01:48;19.90;99.90
53045;DHT22;38930;52.766;6.884;2023-08-06T15:04:13;19.90;99.90
53045;DHT22;38930;52.766;6.884;2023-08-06T15:06:39;19.90;99.90
53045;DHT22;38930;52.766;6.884;2023-08-06T15:09:05;20.00;99.90
53045;DHT22;38930;52.766;6.884;2023-08-06T15:11:30;20.00;99.90
53045;DHT22;38930;52.766;6.884;2023-08-06T15:13:56;20.10;99.90
53045;DHT22;38930;52.766;6.884;2023-08-06T15:16:21;20.10;99.90
53045;DHT22;38930;52.766;6.884;2023-08-06T15:18:47;20.10;99.90
53045;DHT22;38930;52.766;6.884;2023-08-06T15:21:14;20.00;99.90
53045;DHT22;38930;52.766;6.884;2023-08-06T15:23:39;20.00;99.90
53045;DHT22;38930;52.766;6.884;2023-08-06T15:26:05;19.90;99.90
53045;DHT22;38930;52.766;6.884;2023-08-06T15:28:31;20.00;99.90
53045;DHT22;38930;52.766;6.884;2023-08-06T15:30:56;20.00;99.90
53045;DHT22;38930;52.766;6.884;2023-08-06T15:33:22;20.00;99.90